Flight Track Log - Related Links

Times and Time Zones

All times are in EDT time to prevent confusion due to time zone crossing. See the VNR160 flight status page for this flight to view local times or setup timezone preferences in your user account.

Time Position Orientation Groundspeed Altitude Reporting Facility
EDT Latitude Longitude Course Direction KTS MPH feet Rate Location/Type
Fri 07:50:19 PM 26.4161 -80.1019 20° North 179 206 2,100  Level Miami Center
Fri 07:51:38 PM 26.4753 -80.0781 20° North 185 213 5,400 1,644 Climbing Miami Center
Fri 07:52:45 PM 26.4811 -79.9994 85° East 253 291 6,100 328 Climbing Miami Center
Fri 07:53:46 PM 26.4233 -79.9608 149° Southeast 262 302 6,100  Level Miami Center
Fri 07:54:47 PM 26.3503 -79.9633 182° South 271 312 6,100 -47 Level Miami Center
Fri 07:55:54 PM 26.2683 -79.9892 196° South 269 310 6,000 -47 Descending Miami Center
Fri 07:56:55 PM 26.2028 -80.0244 206° Southwest 270 311 6,000 -47 Level Miami Center
Fri 07:58:02 PM 26.1675 -80.1114 246° West 279 321 5,900 -797 Descending Miami Center
Fri 07:59:03 PM 26.1078 -80.1675 220° Southwest 266 306 4,300 -931 Descending Miami Center
Fri 07:59:58 PM 26.0528 -80.1961 205° Southwest 253 291 4,100 -600 Descending Miami Center
Fri 08:00:53 PM 26.0097 -80.2481 227° Southwest 254 292 3,200 -1,033 Descending Miami Center
Fri 08:02:00 PM 25.9850 -80.3236 250° West 216 249 2,000 -516 Descending Miami Center
Fri 08:03:01 PM 25.9836 -80.3814 268° West 189 217 2,100 49 Climbing Miami Center
Fri 08:04:02 PM 25.9781 -80.4392 264° West 176 203 2,100  Level Miami Center
Fri 08:05:03 PM 25.9319 -80.4422 183° South 169 194 2,100 -188 Level Miami Center
Fri 08:06:10 PM 25.9081 -80.3978 121° Southeast 173 199 1,700 -443 Descending Miami Center
Fri 08:07:05 PM 25.9069 -80.3539 92° East 138 159 1,200 -621 Descending Miami Center
Fri 08:08:06 PM 25.9100 -80.3147 85° East 133 153 500 -689 Descending Miami Center
Fri 08:10:00 PM 25.9074 -80.2782 94° East  Level Estimated
Fri 08:17:00 PM 25.9074 -80.2782 211° Southwest  Level Estimated

Login

Don't have an account? Register now (free) for customized features, flight alerts, and more!